sensor_id;sensor_type;location;lat;lon;timestamp;P1;durP1;ratioP1;P2;durP2;ratioP2
39078;SDS011;24829;49.208;12.080;2023-08-06T00:02:19;10.32;;;9.30;;
39078;SDS011;24829;49.208;12.080;2023-08-06T00:04:44;11.82;;;8.95;;
39078;SDS011;24829;49.208;12.080;2023-08-06T00:07:10;9.88;;;8.88;;
39078;SDS011;24829;49.208;12.080;2023-08-06T00:09:35;9.88;;;8.90;;
39078;SDS011;24829;49.208;12.080;2023-08-06T00:12:01;10.35;;;7.93;;
39078;SDS011;24829;49.208;12.080;2023-08-06T00:14:27;12.95;;;9.68;;
39078;SDS011;24829;49.208;12.080;2023-08-06T00:16:52;11.63;;;9.50;;
39078;SDS011;24829;49.208;12.080;2023-08-06T00:19:18;11.45;;;9.90;;
39078;SDS011;24829;49.208;12.080;2023-08-06T00:21:43;11.88;;;10.18;;
39078;SDS011;24829;49.208;12.080;2023-08-06T00:24:09;11.70;;;10.43;;
39078;SDS011;24829;49.208;12.080;2023-08-06T00:26:34;11.55;;;10.45;;
39078;SDS011;24829;49.208;12.080;2023-08-06T00:29:00;11.77;;;10.68;;
39078;SDS011;24829;49.208;12.080;2023-08-06T00:31:26;13.40;;;10.55;;
39078;SDS011;24829;49.208;12.080;2023-08-06T00:33:51;11.20;;;10.10;;
39078;SDS011;24829;49.208;12.080;2023-08-06T00:36:17;11.07;;;9.48;;
39078;SDS011;24829;49.208;12.080;2023-08-06T00:38:42;11.57;;;9.50;;
39078;SDS011;24829;49.208;12.080;2023-08-06T00:41:08;12.80;;;10.02;;
39078;SDS011;24829;49.208;12.080;2023-08-06T00:43:33;14.20;;;11.57;;
39078;SDS011;24829;49.208;12.080;2023-08-06T00:45:59;12.40;;;10.85;;
39078;SDS011;24829;49.208;12.080;2023-08-06T00:48:25;20.45;;;12.60;;
39078;SDS011;24829;49.208;12.080;2023-08-06T00:50:51;17.70;;;12.82;;
39078;SDS011;24829;49.208;12.080;2023-08-06T00:53:17;13.40;;;9.25;;
39078;SDS011;24829;49.208;12.080;2023-08-06T00:55:43;7.57;;;5.90;;
39078;SDS011;24829;49.208;12.080;2023-08-06T00:58:10;5.13;;;3.72;;
39078;SDS011;24829;49.208;12.080;2023-08-06T01:00:37;5.07;;;3.28;;
39078;SDS011;24829;49.208;12.080;2023-08-06T01:03:03;5.75;;;3.20;;
39078;SDS011;24829;49.208;12.080;2023-08-06T01:05:28;3.15;;;2.22;;
39078;SDS011;24829;49.208;12.080;2023-08-06T01:13:41;3.13;;;1.45;;
39078;SDS011;24829;49.208;12.080;2023-08-06T01:16:11;2.08;;;1.48;;
39078;SDS011;24829;49.208;12.080;2023-08-06T01:18:41;2.67;;;1.40;;
39078;SDS011;24829;49.208;12.080;2023-08-06T01:21:11;2.13;;;1.40;;
39078;SDS011;24829;49.208;12.080;2023-08-06T01:23:37;2.65;;;1.77;;
39078;SDS011;24829;49.208;12.080;2023-08-06T01:31:10;6.57;;;1.70;;
39078;SDS011;24829;49.208;12.080;2023-08-06T01:33:59;2.53;;;1.80;;
39078;SDS011;24829;49.208;12.080;2023-08-06T01:36:26;2.97;;;1.92;;
39078;SDS011;24829;49.208;12.080;2023-08-06T01:38:53;2.45;;;1.73;;
39078;SDS011;24829;49.208;12.080;2023-08-06T01:41:19;3.03;;;2.10;;
39078;SDS011;24829;49.208;12.080;2023-08-06T01:43:45;1.98;;;1.60;;
39078;SDS011;24829;49.208;12.080;2023-08-06T01:46:10;2.08;;;1.58;;
39078;SDS011;24829;49.208;12.080;2023-08-06T01:48:36;5.40;;;2.15;;
39078;SDS011;24829;49.208;12.080;2023-08-06T01:51:04;3.67;;;1.80;;
39078;SDS011;24829;49.208;12.080;2023-08-06T01:53:30;5.00;;;1.77;;
39078;SDS011;24829;49.208;12.080;2023-08-06T01:55:56;1.88;;;1.60;;
39078;SDS011;24829;49.208;12.080;2023-08-06T01:58:22;3.85;;;2.30;;
39078;SDS011;24829;49.208;12.080;2023-08-06T02:00:48;4.22;;;2.00;;
39078;SDS011;24829;49.208;12.080;2023-08-06T02:03:13;3.15;;;2.13;;
39078;SDS011;24829;49.208;12.080;2023-08-06T02:05:39;2.80;;;1.95;;
39078;SDS011;24829;49.208;12.080;2023-08-06T02:08:05;2.47;;;2.00;;
39078;SDS011;24829;49.208;12.080;2023-08-06T02:10:31;2.10;;;1.73;;
39078;SDS011;24829;49.208;12.080;2023-08-06T02:12:56;2.25;;;1.52;;
39078;SDS011;24829;49.208;12.080;2023-08-06T02:15:22;3.65;;;2.00;;
39078;SDS011;24829;49.208;12.080;2023-08-06T02:17:47;2.85;;;1.73;;
39078;SDS011;24829;49.208;12.080;2023-08-06T02:20:13;4.10;;;1.92;;
39078;SDS011;24829;49.208;12.080;2023-08-06T02:22:38;2.15;;;1.80;;
39078;SDS011;24829;49.208;12.080;2023-08-06T02:25:04;3.67;;;1.88;;
39078;SDS011;24829;49.208;12.080;2023-08-06T02:27:30;2.53;;;2.00;;
39078;SDS011;24829;49.208;12.080;2023-08-06T02:29:55;2.58;;;2.03;;
39078;SDS011;24829;49.208;12.080;2023-08-06T02:32:21;3.47;;;2.00;;
39078;SDS011;24829;49.208;12.080;2023-08-06T02:34:47;3.30;;;2.20;;
39078;SDS011;24829;49.208;12.080;2023-08-06T02:37:12;2.65;;;2.10;;
39078;SDS011;24829;49.208;12.080;2023-08-06T02:39:38;2.72;;;2.20;;
39078;SDS011;24829;49.208;12.080;2023-08-06T02:42:05;4.93;;;1.95;;
39078;SDS011;24829;49.208;12.080;2023-08-06T02:44:31;3.28;;;2.17;;
39078;SDS011;24829;49.208;12.080;2023-08-06T02:46:57;2.50;;;1.90;;
39078;SDS011;24829;49.208;12.080;2023-08-06T02:49:22;4.65;;;2.17;;
39078;SDS011;24829;49.208;12.080;2023-08-06T02:51:48;3.67;;;1.98;;
39078;SDS011;24829;49.208;12.080;2023-08-06T02:54:13;3.00;;;2.08;;
39078;SDS011;24829;49.208;12.080;2023-08-06T02:56:42;3.92;;;2.42;;
39078;SDS011;24829;49.208;12.080;2023-08-06T02:59:09;4.00;;;1.92;;
39078;SDS011;24829;49.208;12.080;2023-08-06T03:01:35;5.80;;;2.50;;
39078;SDS011;24829;49.208;12.080;2023-08-06T03:04:01;4.03;;;2.40;;
39078;SDS011;24829;49.208;12.080;2023-08-06T03:06:26;4.15;;;2.22;;
39078;SDS011;24829;49.208;12.080;2023-08-06T03:08:52;3.75;;;2.63;;
39078;SDS011;24829;49.208;12.080;2023-08-06T03:11:17;5.10;;;2.80;;
39078;SDS011;24829;49.208;12.080;2023-08-06T03:13:43;5.05;;;2.63;;
39078;SDS011;24829;49.208;12.080;2023-08-06T03:16:09;5.47;;;3.00;;
39078;SDS011;24829;49.208;12.080;2023-08-06T03:18:34;5.25;;;2.45;;
39078;SDS011;24829;49.208;12.080;2023-08-06T03:21:00;3.75;;;2.08;;
39078;SDS011;24829;49.208;12.080;2023-08-06T03:23:25;5.55;;;2.70;;
39078;SDS011;24829;49.208;12.080;2023-08-06T03:25:51;5.22;;;3.10;;
39078;SDS011;24829;49.208;12.080;2023-08-06T03:28:16;3.53;;;2.55;;
39078;SDS011;24829;49.208;12.080;2023-08-06T03:30:42;4.25;;;2.65;;
39078;SDS011;24829;49.208;12.080;2023-08-06T03:33:08;6.50;;;3.05;;
39078;SDS011;24829;49.208;12.080;2023-08-06T03:35:33;3.10;;;2.25;;
39078;SDS011;24829;49.208;12.080;2023-08-06T03:37:59;4.25;;;3.08;;
39078;SDS011;24829;49.208;12.080;2023-08-06T03:40:24;3.50;;;2.60;;
39078;SDS011;24829;49.208;12.080;2023-08-06T03:42:50;3.47;;;2.53;;
39078;SDS011;24829;49.208;12.080;2023-08-06T03:45:16;4.82;;;2.95;;
39078;SDS011;24829;49.208;12.080;2023-08-06T03:47:41;5.13;;;2.95;;
39078;SDS011;24829;49.208;12.080;2023-08-06T03:50:07;4.50;;;2.95;;
39078;SDS011;24829;49.208;12.080;2023-08-06T03:52:32;2.92;;;2.40;;
39078;SDS011;24829;49.208;12.080;2023-08-06T03:54:58;3.30;;;2.47;;
39078;SDS011;24829;49.208;12.080;2023-08-06T03:57:23;4.07;;;2.50;;
39078;SDS011;24829;49.208;12.080;2023-08-06T03:59:49;5.25;;;3.03;;
39078;SDS011;24829;49.208;12.080;2023-08-06T04:02:15;3.40;;;2.70;;
39078;SDS011;24829;49.208;12.080;2023-08-06T04:04:40;4.55;;;2.65;;
39078;SDS011;24829;49.208;12.080;2023-08-06T04:07:06;4.68;;;3.25;;
39078;SDS011;24829;49.208;12.080;2023-08-06T04:09:31;4.13;;;2.60;;
39078;SDS011;24829;49.208;12.080;2023-08-06T04:11:57;4.60;;;2.58;;
39078;SDS011;24829;49.208;12.080;2023-08-06T04:14:23;2.92;;;2.40;;
39078;SDS011;24829;49.208;12.080;2023-08-06T04:16:51;3.83;;;2.75;;
39078;SDS011;24829;49.208;12.080;2023-08-06T04:19:16;3.10;;;2.78;;
39078;SDS011;24829;49.208;12.080;2023-08-06T04:21:42;4.85;;;2.63;;
39078;SDS011;24829;49.208;12.080;2023-08-06T04:24:07;4.07;;;2.70;;
39078;SDS011;24829;49.208;12.080;2023-08-06T04:26:33;3.40;;;2.63;;
39078;SDS011;24829;49.208;12.080;2023-08-06T04:28:58;3.78;;;3.38;;
39078;SDS011;24829;49.208;12.080;2023-08-06T04:31:24;4.82;;;2.92;;
39078;SDS011;24829;49.208;12.080;2023-08-06T04:33:50;6.35;;;3.00;;
39078;SDS011;24829;49.208;12.080;2023-08-06T04:36:15;6.32;;;3.30;;
39078;SDS011;24829;49.208;12.080;2023-08-06T04:38:41;4.95;;;3.55;;
39078;SDS011;24829;49.208;12.080;2023-08-06T04:41:10;8.05;;;3.83;;
39078;SDS011;24829;49.208;12.080;2023-08-06T04:43:36;6.13;;;3.00;;
39078;SDS011;24829;49.208;12.080;2023-08-06T04:46:01;4.15;;;3.45;;
39078;SDS011;24829;49.208;12.080;2023-08-06T04:48:27;4.32;;;3.65;;
39078;SDS011;24829;49.208;12.080;2023-08-06T04:50:52;6.65;;;3.97;;
39078;SDS011;24829;49.208;12.080;2023-08-06T04:53:19;4.40;;;3.65;;
39078;SDS011;24829;49.208;12.080;2023-08-06T04:55:45;5.45;;;3.78;;
39078;SDS011;24829;49.208;12.080;2023-08-06T04:58:10;4.20;;;3.33;;
39078;SDS011;24829;49.208;12.080;2023-08-06T05:00:38;4.10;;;3.47;;
39078;SDS011;24829;49.208;12.080;2023-08-06T05:03:05;8.65;;;3.55;;
39078;SDS011;24829;49.208;12.080;2023-08-06T05:05:31;4.55;;;3.55;;
39078;SDS011;24829;49.208;12.080;2023-08-06T05:07:57;4.38;;;3.58;;
39078;SDS011;24829;49.208;12.080;2023-08-06T05:10:25;3.97;;;3.50;;
39078;SDS011;24829;49.208;12.080;2023-08-06T05:12:51;5.32;;;3.60;;
39078;SDS011;24829;49.208;12.080;2023-08-06T05:15:17;3.97;;;3.33;;
39078;SDS011;24829;49.208;12.080;2023-08-06T05:17:43;3.40;;;3.05;;
39078;SDS011;24829;49.208;12.080;2023-08-06T05:20:08;5.25;;;3.13;;
39078;SDS011;24829;49.208;12.080;2023-08-06T05:22:34;4.95;;;3.53;;
39078;SDS011;24829;49.208;12.080;2023-08-06T05:25:00;4.60;;;3.00;;
39078;SDS011;24829;49.208;12.080;2023-08-06T05:27:25;3.90;;;3.08;;
39078;SDS011;24829;49.208;12.080;2023-08-06T05:29:54;6.50;;;3.30;;
39078;SDS011;24829;49.208;12.080;2023-08-06T05:32:21;5.97;;;3.13;;
39078;SDS011;24829;49.208;12.080;2023-08-06T05:34:47;5.47;;;3.10;;
39078;SDS011;24829;49.208;12.080;2023-08-06T05:37:12;4.03;;;2.90;;
39078;SDS011;24829;49.208;12.080;2023-08-06T05:39:38;3.70;;;2.83;;
39078;SDS011;24829;49.208;12.080;2023-08-06T05:42:03;6.53;;;3.70;;
39078;SDS011;24829;49.208;12.080;2023-08-06T05:44:29;7.15;;;3.45;;
39078;SDS011;24829;49.208;12.080;2023-08-06T05:46:55;4.90;;;2.92;;
39078;SDS011;24829;49.208;12.080;2023-08-06T05:49:20;4.65;;;3.00;;
39078;SDS011;24829;49.208;12.080;2023-08-06T05:51:46;5.40;;;3.00;;
39078;SDS011;24829;49.208;12.080;2023-08-06T05:54:11;4.53;;;3.13;;
39078;SDS011;24829;49.208;12.080;2023-08-06T05:56:37;3.67;;;3.28;;
39078;SDS011;24829;49.208;12.080;2023-08-06T05:59:02;3.90;;;3.50;;
39078;SDS011;24829;49.208;12.080;2023-08-06T06:01:28;4.65;;;2.85;;
39078;SDS011;24829;49.208;12.080;2023-08-06T06:03:54;4.35;;;3.38;;
39078;SDS011;24829;49.208;12.080;2023-08-06T06:06:19;4.47;;;3.25;;
39078;SDS011;24829;49.208;12.080;2023-08-06T06:08:45;4.10;;;3.47;;
39078;SDS011;24829;49.208;12.080;2023-08-06T06:11:10;8.63;;;3.58;;
39078;SDS011;24829;49.208;12.080;2023-08-06T06:13:36;6.03;;;3.45;;
39078;SDS011;24829;49.208;12.080;2023-08-06T06:16:02;4.07;;;3.58;;
39078;SDS011;24829;49.208;12.080;2023-08-06T06:18:27;3.45;;;2.75;;
39078;SDS011;24829;49.208;12.080;2023-08-06T06:20:53;5.18;;;2.95;;
39078;SDS011;24829;49.208;12.080;2023-08-06T06:23:18;3.28;;;2.97;;
39078;SDS011;24829;49.208;12.080;2023-08-06T06:25:47;6.05;;;3.65;;
39078;SDS011;24829;49.208;12.080;2023-08-06T06:28:13;3.20;;;2.65;;
39078;SDS011;24829;49.208;12.080;2023-08-06T06:30:40;4.88;;;2.88;;
39078;SDS011;24829;49.208;12.080;2023-08-06T06:33:07;3.67;;;2.22;;
39078;SDS011;24829;49.208;12.080;2023-08-06T06:35:33;4.43;;;3.10;;
39078;SDS011;24829;49.208;12.080;2023-08-06T06:37:59;6.47;;;3.03;;
39078;SDS011;24829;49.208;12.080;2023-08-06T06:40:25;8.13;;;2.60;;
39078;SDS011;24829;49.208;12.080;2023-08-06T06:42:50;4.60;;;2.55;;
39078;SDS011;24829;49.208;12.080;2023-08-06T06:45:16;4.00;;;2.58;;
39078;SDS011;24829;49.208;12.080;2023-08-06T06:47:42;5.88;;;2.97;;
39078;SDS011;24829;49.208;12.080;2023-08-06T06:50:07;5.38;;;2.92;;
39078;SDS011;24829;49.208;12.080;2023-08-06T06:52:33;4.05;;;3.03;;
39078;SDS011;24829;49.208;12.080;2023-08-06T06:54:59;6.95;;;2.20;;
39078;SDS011;24829;49.208;12.080;2023-08-06T06:57:24;3.33;;;2.47;;
39078;SDS011;24829;49.208;12.080;2023-08-06T06:59:50;3.03;;;2.05;;
39078;SDS011;24829;49.208;12.080;2023-08-06T07:02:15;3.03;;;1.77;;
39078;SDS011;24829;49.208;12.080;2023-08-06T07:04:41;4.53;;;2.28;;
39078;SDS011;24829;49.208;12.080;2023-08-06T07:07:07;3.28;;;1.85;;
39078;SDS011;24829;49.208;12.080;2023-08-06T07:09:32;4.63;;;2.20;;
39078;SDS011;24829;49.208;12.080;2023-08-06T07:11:58;4.35;;;2.17;;
39078;SDS011;24829;49.208;12.080;2023-08-06T07:14:25;3.67;;;2.15;;
39078;SDS011;24829;49.208;12.080;2023-08-06T07:16:51;4.40;;;2.47;;
39078;SDS011;24829;49.208;12.080;2023-08-06T07:19:16;4.57;;;2.28;;
39078;SDS011;24829;49.208;12.080;2023-08-06T07:21:42;3.20;;;2.15;;
39078;SDS011;24829;49.208;12.080;2023-08-06T07:24:07;3.53;;;2.30;;
39078;SDS011;24829;49.208;12.080;2023-08-06T07:26:33;3.25;;;2.03;;
39078;SDS011;24829;49.208;12.080;2023-08-06T07:28:59;2.85;;;2.13;;
39078;SDS011;24829;49.208;12.080;2023-08-06T07:31:24;5.53;;;2.22;;
39078;SDS011;24829;49.208;12.080;2023-08-06T07:33:50;3.65;;;2.08;;
39078;SDS011;24829;49.208;12.080;2023-08-06T07:36:16;4.60;;;2.38;;
39078;SDS011;24829;49.208;12.080;2023-08-06T07:38:41;5.13;;;2.72;;
39078;SDS011;24829;49.208;12.080;2023-08-06T07:41:08;4.70;;;2.45;;
39078;SDS011;24829;49.208;12.080;2023-08-06T07:43:33;3.13;;;2.50;;
39078;SDS011;24829;49.208;12.080;2023-08-06T07:46:00;6.60;;;2.78;;
39078;SDS011;24829;49.208;12.080;2023-08-06T07:48:26;5.93;;;3.03;;
39078;SDS011;24829;49.208;12.080;2023-08-06T07:50:53;3.17;;;2.50;;
39078;SDS011;24829;49.208;12.080;2023-08-06T07:53:22;4.63;;;2.45;;
39078;SDS011;24829;49.208;12.080;2023-08-06T07:55:49;2.90;;;2.13;;
39078;SDS011;24829;49.208;12.080;2023-08-06T07:58:16;4.60;;;2.40;;
39078;SDS011;24829;49.208;12.080;2023-08-06T08:00:42;3.03;;;2.10;;
39078;SDS011;24829;49.208;12.080;2023-08-06T08:03:10;3.42;;;2.00;;
39078;SDS011;24829;49.208;12.080;2023-08-06T08:05:37;2.90;;;1.85;;
39078;SDS011;24829;49.208;12.080;2023-08-06T08:08:02;6.25;;;2.53;;
39078;SDS011;24829;49.208;12.080;2023-08-06T08:10:28;6.57;;;5.97;;
39078;SDS011;24829;49.208;12.080;2023-08-06T08:12:53;4.15;;;2.00;;
39078;SDS011;24829;49.208;12.080;2023-08-06T08:15:19;2.92;;;1.77;;
39078;SDS011;24829;49.208;12.080;2023-08-06T08:17:45;2.88;;;2.10;;
39078;SDS011;24829;49.208;12.080;2023-08-06T08:20:12;3.25;;;1.40;;
39078;SDS011;24829;49.208;12.080;2023-08-06T08:22:38;2.85;;;1.85;;
39078;SDS011;24829;49.208;12.080;2023-08-06T08:25:04;3.15;;;1.65;;
39078;SDS011;24829;49.208;12.080;2023-08-06T08:27:30;4.47;;;1.63;;
39078;SDS011;24829;49.208;12.080;2023-08-06T08:29:55;4.25;;;1.55;;
39078;SDS011;24829;49.208;12.080;2023-08-06T08:32:21;5.15;;;1.50;;
39078;SDS011;24829;49.208;12.080;2023-08-06T08:34:47;3.00;;;1.27;;
39078;SDS011;24829;49.208;12.080;2023-08-06T08:37:13;2.20;;;1.08;;
39078;SDS011;24829;49.208;12.080;2023-08-06T08:39:38;3.78;;;1.35;;
39078;SDS011;24829;49.208;12.080;2023-08-06T08:42:05;2.40;;;1.15;;
39078;SDS011;24829;49.208;12.080;2023-08-06T08:44:32;3.03;;;1.30;;
39078;SDS011;24829;49.208;12.080;2023-08-06T08:46:58;2.05;;;1.10;;
39078;SDS011;24829;49.208;12.080;2023-08-06T08:49:24;2.05;;;1.08;;
39078;SDS011;24829;49.208;12.080;2023-08-06T08:51:52;2.05;;;1.20;;
39078;SDS011;24829;49.208;12.080;2023-08-06T08:54:19;3.15;;;1.00;;
39078;SDS011;24829;49.208;12.080;2023-08-06T08:56:48;2.33;;;1.00;;
39078;SDS011;24829;49.208;12.080;2023-08-06T08:59:13;1.65;;;1.40;;
39078;SDS011;24829;49.208;12.080;2023-08-06T09:01:39;4.50;;;0.85;;
39078;SDS011;24829;49.208;12.080;2023-08-06T09:04:07;2.30;;;1.17;;
39078;SDS011;24829;49.208;12.080;2023-08-06T09:06:34;3.60;;;1.13;;
39078;SDS011;24829;49.208;12.080;2023-08-06T09:09:12;3.08;;;1.15;;
39078;SDS011;24829;49.208;12.080;2023-08-06T09:11:45;1.45;;;0.80;;
39078;SDS011;24829;49.208;12.080;2023-08-06T09:14:14;2.30;;;0.80;;
39078;SDS011;24829;49.208;12.080;2023-08-06T09:16:39;1.77;;;0.70;;
39078;SDS011;24829;49.208;12.080;2023-08-06T09:21:41;1.45;;;1.00;;
39078;SDS011;24829;49.208;12.080;2023-08-06T09:24:11;1.92;;;1.00;;
39078;SDS011;24829;49.208;12.080;2023-08-06T09:26:40;1.63;;;1.00;;
39078;SDS011;24829;49.208;12.080;2023-08-06T09:29:07;1.55;;;0.90;;
39078;SDS011;24829;49.208;12.080;2023-08-06T09:31:54;2.40;;;0.90;;
39078;SDS011;24829;49.208;12.080;2023-08-06T09:34:20;3.78;;;1.10;;
39078;SDS011;24829;49.208;12.080;2023-08-06T09:36:50;3.08;;;0.80;;
39078;SDS011;24829;49.208;12.080;2023-08-06T09:39:19;2.25;;;1.00;;
39078;SDS011;24829;49.208;12.080;2023-08-06T09:41:55;4.72;;;1.40;;
39078;SDS011;24829;49.208;12.080;2023-08-06T09:44:22;8.82;;;0.95;;
39078;SDS011;24829;49.208;12.080;2023-08-06T09:46:57;8.25;;;1.75;;
39078;SDS011;24829;49.208;12.080;2023-08-06T09:51:53;1.90;;;1.10;;
39078;SDS011;24829;49.208;12.080;2023-08-06T09:54:24;4.57;;;1.20;;
39078;SDS011;24829;49.208;12.080;2023-08-06T09:56:52;6.32;;;1.25;;
39078;SDS011;24829;49.208;12.080;2023-08-06T09:59:20;2.38;;;0.90;;
39078;SDS011;24829;49.208;12.080;2023-08-06T10:01:46;1.55;;;0.90;;
39078;SDS011;24829;49.208;12.080;2023-08-06T10:04:13;1.35;;;0.73;;
39078;SDS011;24829;49.208;12.080;2023-08-06T10:06:41;1.13;;;0.65;;
39078;SDS011;24829;49.208;12.080;2023-08-06T10:09:07;1.20;;;0.70;;
39078;SDS011;24829;49.208;12.080;2023-08-06T10:11:34;1.55;;;0.65;;
39078;SDS011;24829;49.208;12.080;2023-08-06T10:14:11;1.25;;;0.60;;
39078;SDS011;24829;49.208;12.080;2023-08-06T10:16:40;1.98;;;0.73;;
39078;SDS011;24829;49.208;12.080;2023-08-06T10:19:07;0.80;;;0.60;;
39078;SDS011;24829;49.208;12.080;2023-08-06T10:21:35;0.80;;;0.60;;
39078;SDS011;24829;49.208;12.080;2023-08-06T10:24:00;1.30;;;0.60;;
39078;SDS011;24829;49.208;12.080;2023-08-06T10:26:28;2.70;;;0.60;;
39078;SDS011;24829;49.208;12.080;2023-08-06T10:28:54;2.25;;;0.43;;
39078;SDS011;24829;49.208;12.080;2023-08-06T10:31:53;0.82;;;0.40;;
39078;SDS011;24829;49.208;12.080;2023-08-06T10:34:20;1.95;;;0.47;;
39078;SDS011;24829;49.208;12.080;2023-08-06T10:36:46;0.50;;;0.30;;
39078;SDS011;24829;49.208;12.080;2023-08-06T10:39:15;1.92;;;0.47;;
39078;SDS011;24829;49.208;12.080;2023-08-06T10:41:41;2.00;;;0.70;;
39078;SDS011;24829;49.208;12.080;2023-08-06T10:44:09;0.50;;;0.38;;
39078;SDS011;24829;49.208;12.080;2023-08-06T10:46:35;3.22;;;0.70;;
39078;SDS011;24829;49.208;12.080;2023-08-06T10:49:02;1.15;;;0.47;;
39078;SDS011;24829;49.208;12.080;2023-08-06T10:51:28;1.02;;;0.45;;
39078;SDS011;24829;49.208;12.080;2023-08-06T10:53:54;3.30;;;0.70;;
39078;SDS011;24829;49.208;12.080;2023-08-06T10:56:21;1.02;;;0.40;;
39078;SDS011;24829;49.208;12.080;2023-08-06T10:58:48;0.80;;;0.40;;
39078;SDS011;24829;49.208;12.080;2023-08-06T11:01:15;0.60;;;0.40;;
39078;SDS011;24829;49.208;12.080;2023-08-06T11:03:42;3.08;;;0.40;;
39078;SDS011;24829;49.208;12.080;2023-08-06T11:06:22;1.60;;;0.50;;
39078;SDS011;24829;49.208;12.080;2023-08-06T11:08:49;0.55;;;0.40;;
39078;SDS011;24829;49.208;12.080;2023-08-06T11:11:16;1.08;;;0.32;;
39078;SDS011;24829;49.208;12.080;2023-08-06T11:13:43;0.90;;;0.45;;
39078;SDS011;24829;49.208;12.080;2023-08-06T11:16:12;0.30;;;0.20;;
39078;SDS011;24829;49.208;12.080;2023-08-06T11:18:41;2.95;;;0.40;;
39078;SDS011;24829;49.208;12.080;2023-08-06T11:21:07;1.02;;;0.20;;
39078;SDS011;24829;49.208;12.080;2023-08-06T11:23:33;0.43;;;0.20;;
39078;SDS011;24829;49.208;12.080;2023-08-06T11:26:00;1.00;;;0.40;;
39078;SDS011;24829;49.208;12.080;2023-08-06T11:28:26;0.30;;;0.20;;
39078;SDS011;24829;49.208;12.080;2023-08-06T11:30:52;0.70;;;0.15;;
39078;SDS011;24829;49.208;12.080;2023-08-06T11:33:23;0.52;;;0.20;;
39078;SDS011;24829;49.208;12.080;2023-08-06T11:35:54;0.35;;;0.22;;
39078;SDS011;24829;49.208;12.080;2023-08-06T11:38:21;0.20;;;0.20;;
39078;SDS011;24829;49.208;12.080;2023-08-06T11:40:49;0.68;;;0.10;;
39078;SDS011;24829;49.208;12.080;2023-08-06T11:43:15;0.25;;;0.10;;
39078;SDS011;24829;49.208;12.080;2023-08-06T11:45:43;0.38;;;0.20;;
39078;SDS011;24829;49.208;12.080;2023-08-06T11:48:09;0.25;;;0.10;;
39078;SDS011;24829;49.208;12.080;2023-08-06T11:50:38;0.30;;;0.10;;
39078;SDS011;24829;49.208;12.080;2023-08-06T11:53:04;0.10;;;0.00;;
39078;SDS011;24829;49.208;12.080;2023-08-06T11:55:30;0.38;;;0.00;;
39078;SDS011;24829;49.208;12.080;2023-08-06T11:57:56;0.00;;;0.00;;
39078;SDS011;24829;49.208;12.080;2023-08-06T12:00:25;0.10;;;0.10;;
39078;SDS011;24829;49.208;12.080;2023-08-06T12:02:51;0.00;;;0.00;;
39078;SDS011;24829;49.208;12.080;2023-08-06T12:05:22;0.00;;;0.00;;
39078;SDS011;24829;49.208;12.080;2023-08-06T12:07:49;0.22;;;0.00;;
39078;SDS011;24829;49.208;12.080;2023-08-06T12:10:21;0.10;;;0.10;;
39078;SDS011;24829;49.208;12.080;2023-08-06T12:12:47;0.38;;;0.08;;
39078;SDS011;24829;49.208;12.080;2023-08-06T12:15:13;0.30;;;0.00;;
39078;SDS011;24829;49.208;12.080;2023-08-06T12:17:39;0.03;;;0.00;;
39078;SDS011;24829;49.208;12.080;2023-08-06T12:20:06;0.10;;;0.00;;
39078;SDS011;24829;49.208;12.080;2023-08-06T12:22:32;0.00;;;0.00;;
39078;SDS011;24829;49.208;12.080;2023-08-06T12:25:03;0.35;;;0.05;;
39078;SDS011;24829;49.208;12.080;2023-08-06T12:27:43;0.45;;;0.10;;
39078;SDS011;24829;49.208;12.080;2023-08-06T12:30:09;0.03;;;0.00;;
39078;SDS011;24829;49.208;12.080;2023-08-06T12:32:36;0.20;;;0.10;;
39078;SDS011;24829;49.208;12.080;2023-08-06T12:35:02;0.10;;;0.00;;
39078;SDS011;24829;49.208;12.080;2023-08-06T12:37:28;0.45;;;0.10;;
39078;SDS011;24829;49.208;12.080;2023-08-06T12:39:54;0.00;;;0.00;;
39078;SDS011;24829;49.208;12.080;2023-08-06T12:42:19;0.60;;;0.00;;
39078;SDS011;24829;49.208;12.080;2023-08-06T12:44:45;0.00;;;0.00;;
39078;SDS011;24829;49.208;12.080;2023-08-06T12:47:10;0.85;;;0.00;;
39078;SDS011;24829;49.208;12.080;2023-08-06T12:49:36;1.20;;;0.00;;
39078;SDS011;24829;49.208;12.080;2023-08-06T12:52:02;1.55;;;0.10;;
39078;SDS011;24829;49.208;12.080;2023-08-06T12:54:31;0.40;;;0.00;;
39078;SDS011;24829;49.208;12.080;2023-08-06T12:57:01;0.00;;;0.00;;
39078;SDS011;24829;49.208;12.080;2023-08-06T12:59:27;0.17;;;0.00;;
39078;SDS011;24829;49.208;12.080;2023-08-06T13:01:52;0.45;;;0.00;;
39078;SDS011;24829;49.208;12.080;2023-08-06T13:04:18;0.47;;;0.00;;
39078;SDS011;24829;49.208;12.080;2023-08-06T13:06:43;0.20;;;0.00;;
39078;SDS011;24829;49.208;12.080;2023-08-06T13:09:09;0.40;;;0.00;;
39078;SDS011;24829;49.208;12.080;2023-08-06T13:11:35;0.10;;;0.00;;
39078;SDS011;24829;49.208;12.080;2023-08-06T13:16:32;0.88;;;0.00;;
39078;SDS011;24829;49.208;12.080;2023-08-06T13:18:58;0.75;;;0.00;;
39078;SDS011;24829;49.208;12.080;2023-08-06T13:21:24;5.63;;;0.10;;
39078;SDS011;24829;49.208;12.080;2023-08-06T13:23:56;0.43;;;0.00;;
39078;SDS011;24829;49.208;12.080;2023-08-06T13:26:22;2.95;;;0.05;;
39078;SDS011;24829;49.208;12.080;2023-08-06T13:28:48;0.20;;;0.10;;
39078;SDS011;24829;49.208;12.080;2023-08-06T13:31:14;0.40;;;0.10;;
39078;SDS011;24829;49.208;12.080;2023-08-06T13:33:39;0.20;;;0.08;;
39078;SDS011;24829;49.208;12.080;2023-08-06T13:36:05;0.50;;;0.30;;
39078;SDS011;24829;49.208;12.080;2023-08-06T13:38:31;0.70;;;0.22;;
39078;SDS011;24829;49.208;12.080;2023-08-06T13:40:56;0.52;;;0.20;;
39078;SDS011;24829;49.208;12.080;2023-08-06T13:43:22;0.30;;;0.20;;
39078;SDS011;24829;49.208;12.080;2023-08-06T13:45:49;1.25;;;0.30;;
39078;SDS011;24829;49.208;12.080;2023-08-06T13:48:14;1.20;;;0.75;;
39078;SDS011;24829;49.208;12.080;2023-08-06T13:50:40;4.18;;;0.40;;
39078;SDS011;24829;49.208;12.080;2023-08-06T13:53:05;0.65;;;0.40;;
39078;SDS011;24829;49.208;12.080;2023-08-06T13:55:31;0.40;;;0.20;;
39078;SDS011;24829;49.208;12.080;2023-08-06T13:57:57;0.20;;;0.10;;
39078;SDS011;24829;49.208;12.080;2023-08-06T14:00:22;0.98;;;0.20;;
39078;SDS011;24829;49.208;12.080;2023-08-06T14:02:48;1.02;;;0.10;;
39078;SDS011;24829;49.208;12.080;2023-08-06T14:05:13;3.35;;;0.20;;
39078;SDS011;24829;49.208;12.080;2023-08-06T14:07:39;0.08;;;0.00;;
39078;SDS011;24829;49.208;12.080;2023-08-06T14:10:05;0.10;;;0.08;;
39078;SDS011;24829;49.208;12.080;2023-08-06T14:12:31;0.10;;;0.08;;
39078;SDS011;24829;49.208;12.080;2023-08-06T14:14:56;1.30;;;0.05;;
39078;SDS011;24829;49.208;12.080;2023-08-06T14:17:22;3.00;;;0.10;;
39078;SDS011;24829;49.208;12.080;2023-08-06T14:19:48;0.15;;;0.03;;
39078;SDS011;24829;49.208;12.080;2023-08-06T14:22:13;0.10;;;0.00;;
39078;SDS011;24829;49.208;12.080;2023-08-06T14:24:39;0.17;;;0.10;;
39078;SDS011;24829;49.208;12.080;2023-08-06T14:27:04;1.10;;;0.00;;
39078;SDS011;24829;49.208;12.080;2023-08-06T14:29:31;0.60;;;0.10;;
39078;SDS011;24829;49.208;12.080;2023-08-06T14:31:56;0.20;;;0.10;;
39078;SDS011;24829;49.208;12.080;2023-08-06T14:34:22;0.30;;;0.00;;
39078;SDS011;24829;49.208;12.080;2023-08-06T14:36:48;0.20;;;0.10;;
39078;SDS011;24829;49.208;12.080;2023-08-06T14:39:13;1.58;;;0.10;;
39078;SDS011;24829;49.208;12.080;2023-08-06T14:41:39;0.10;;;0.10;;
39078;SDS011;24829;49.208;12.080;2023-08-06T14:44:05;0.28;;;0.10;;
39078;SDS011;24829;49.208;12.080;2023-08-06T14:46:32;2.03;;;0.10;;
39078;SDS011;24829;49.208;12.080;2023-08-06T14:48:57;1.52;;;0.20;;